Time;durP1;ratioP1;P1;durP2;ratioP2;P2;SDS_P1;SDS_P2;PMS_P1;PMS_P2;Temp;Humidity;BMP_temperature;BMP_pressure;BME280_temperature;BME280_humidity;BME280_pressure;Samples;Min_cycle;Max_cycle;Signal;HPM_P1;HPM_P2
2022/07/16 00:01:24;;;;;;;5.72;2.55;;;15.60;99.90;;;;;;5000784;28;20056;-83
2022/07/16 00:03:58;;;;;;;4.10;2.60;;;15.60;99.90;;;;;;5000699;28;20053;-82
2022/07/16 00:06:26;;;;;;;5.80;2.80;;;15.50;99.90;;;;;;4987107;28;20506;-83
2022/07/16 00:08:52;;;;;;;3.78;2.78;;;15.50;99.90;;;;;;4992919;28;20045;-84
2022/07/16 00:11:18;;;;;;;3.05;2.60;;;15.50;99.90;;;;;;4998996;28;20085;-85
2022/07/16 00:13:44;;;;;;;4.22;2.50;;;15.50;99.90;;;;;;5002573;28;20135;-83
2022/07/16 00:16:10;;;;;;;4.53;2.50;;;15.60;99.90;;;;;;5001295;28;20065;-84
2022/07/16 00:21:20;;;;;;;4.20;2.28;;;15.70;99.90;;;;;;4996840;28;20057;-84
2022/07/16 00:23:46;;;;;;;9.32;2.55;;;15.70;99.90;;;;;;4982439;28;20645;-83
2022/07/16 00:26:12;;;;;;;4.28;2.63;;;15.80;99.90;;;;;;5006899;28;20453;-83
2022/07/16 00:28:37;;;;;;;5.43;2.40;;;15.80;99.90;;;;;;4995120;28;20058;-83
2022/07/16 00:31:03;;;;;;;4.35;2.28;;;15.80;99.90;;;;;;5004795;28;20121;-83
2022/07/16 00:33:29;;;;;;;3.05;1.92;;;15.90;99.90;;;;;;5002489;28;20045;-83
2022/07/16 00:35:55;;;;;;;4.55;2.35;;;15.90;99.90;;;;;;5003990;28;20034;-83
2022/07/16 00:38:21;;;;;;;6.72;2.97;;;15.90;99.90;;;;;;4998884;28;20057;-84
2022/07/16 00:40:47;;;;;;;6.53;3.58;;;16.00;99.90;;;;;;4992776;28;20080;-83
2022/07/16 00:43:14;;;;;;;5.00;3.15;;;16.00;99.90;;;;;;4999560;28;20042;-83
2022/07/16 00:45:40;;;;;;;6.53;2.95;;;15.90;99.90;;;;;;5001860;28;20121;-83
2022/07/16 00:48:06;;;;;;;5.25;3.88;;;16.00;99.90;;;;;;4985564;28;20082;-83
2022/07/16 00:50:32;;;;;;;;;;;15.90;99.90;;;;;;4998294;28;20506;-84
2022/07/16 00:53:01;;;;;;;4.38;2.40;;;15.80;99.90;;;;;;4995431;28;19979;-82
2022/07/16 00:55:27;;;;;;;3.05;1.95;;;15.80;99.90;;;;;;5001931;28;20097;-82
2022/07/16 00:57:54;;;;;;;3.15;1.73;;;15.70;99.90;;;;;;5010109;28;20076;-82
2022/07/16 01:00:19;;;;;;;3.20;1.92;;;15.60;99.90;;;;;;5001348;28;20041;-84
2022/07/16 01:02:45;;;;;;;2.65;1.85;;;15.60;99.90;;;;;;5000936;28;20411;-83
2022/07/16 01:05:11;;;;;;;3.58;1.98;;;15.60;99.90;;;;;;5006204;28;20041;-83
2022/07/16 01:07:37;;;;;;;2.90;1.77;;;15.60;99.90;;;;;;5003832;28;20551;-84
2022/07/16 01:10:04;;;;;;;4.07;1.83;;;15.60;99.90;;;;;;5006385;28;20073;-83
2022/07/16 01:12:31;;;;;;;2.92;2.10;;;15.60;99.90;;;;;;5008151;28;20113;-83
2022/07/16 01:15:01;;;;;;;3.53;2.17;;;15.60;99.90;;;;;;5007651;28;20028;-83
2022/07/16 01:17:26;;;;;;;4.47;2.30;;;15.60;99.90;;;;;;4998592;28;20406;-83
2022/07/16 01:19:53;;;;;;;4.72;2.00;;;15.60;99.90;;;;;;4990810;28;20041;-84
2022/07/16 01:22:22;;;;;;;3.80;1.95;;;15.60;99.90;;;;;;5009939;28;20084;-83
2022/07/16 01:24:48;;;;;;;7.60;2.30;;;15.60;99.90;;;;;;4985279;28;20038;-84
2022/07/16 01:27:15;;;;;;;3.95;2.38;;;15.60;99.90;;;;;;4988923;28;20384;-83
2022/07/16 01:29:40;;;;;;;5.10;2.78;;;15.60;99.90;;;;;;5005229;28;20050;-83
2022/07/16 01:32:06;;;;;;;5.03;3.00;;;15.60;99.90;;;;;;5004662;28;20046;-84
2022/07/16 01:34:32;;;;;;;6.10;3.20;;;15.60;99.90;;;;;;5000370;28;20054;-83
2022/07/16 01:37:05;;;;;;;5.30;3.30;;;15.60;99.90;;;;;;5003010;28;20038;-84
2022/07/16 01:39:33;;;;;;;7.72;3.30;;;15.60;99.90;;;;;;5005433;28;20034;-82
2022/07/16 01:42:01;;;;;;;5.57;3.17;;;15.60;99.90;;;;;;5007601;28;20037;-82
2022/07/16 01:44:29;;;;;;;5.55;2.60;;;15.60;99.90;;;;;;5014742;28;20042;-84
2022/07/16 01:46:56;;;;;;;5.05;2.50;;;15.60;99.90;;;;;;4997820;28;20042;-84
2022/07/16 01:49:23;;;;;;;6.45;2.47;;;15.60;99.90;;;;;;4986601;28;20046;-83
2022/07/16 01:51:48;;;;;;;;;;;15.50;99.90;;;;;;5010000;28;20581;-83
2022/07/16 01:54:14;;;;;;;3.80;2.20;;;15.50;99.90;;;;;;5010283;28;19956;-83
2022/07/16 01:56:40;;;;;;;6.05;2.35;;;15.60;99.90;;;;;;5003556;28;20042;-83
2022/07/16 01:59:06;;;;;;;5.45;2.17;;;15.50;99.90;;;;;;5003314;28;20092;-83
2022/07/16 02:01:31;;;;;;;7.60;2.00;;;15.50;99.90;;;;;;4986038;28;20045;-83
2022/07/16 02:03:57;;;;;;;7.57;2.22;;;15.50;99.90;;;;;;4999580;28;20038;-83
2022/07/16 02:06:23;;;;;;;4.70;2.10;;;15.50;99.90;;;;;;4998948;28;20073;-83
2022/07/16 02:08:49;;;;;;;3.15;1.80;;;15.50;99.90;;;;;;4981042;28;20069;-83
2022/07/16 02:11:15;;;;;;;5.53;1.75;;;15.50;99.90;;;;;;5002345;28;20044;-83
2022/07/16 02:13:42;;;;;;;5.15;1.85;;;15.50;99.90;;;;;;4983020;28;20462;-84
2022/07/16 02:16:08;;;;;;;3.55;2.08;;;15.50;99.90;;;;;;4988738;28;20077;-84
2022/07/16 02:18:34;;;;;;;8.07;1.63;;;15.50;99.90;;;;;;5000102;28;20070;-84
2022/07/16 02:21:00;;;;;;;4.78;1.60;;;15.40;99.90;;;;;;4989644;28;20091;-84
2022/07/16 02:23:26;;;;;;;4.72;1.60;;;15.40;99.90;;;;;;4983717;28;20042;-84
2022/07/16 02:25:51;;;;;;;5.18;1.80;;;15.30;99.90;;;;;;4996937;28;20125;-83
2022/07/16 02:28:17;;;;;;;4.00;1.55;;;15.30;99.90;;;;;;4992479;28;20633;-84
2022/07/16 02:30:45;;;;;;;5.05;1.80;;;15.20;99.90;;;;;;4980098;28;20503;-84
2022/07/16 02:33:12;;;;;;;4.65;1.75;;;15.20;99.90;;;;;;5009113;28;20533;-83
2022/07/16 02:35:38;;;;;;;6.63;2.05;;;15.10;99.90;;;;;;5003823;28;20120;-84
2022/07/16 02:38:06;;;;;;;7.40;1.95;;;15.10;99.90;;;;;;4986028;28;20030;-83
2022/07/16 02:40:33;;;;;;;4.82;2.05;;;15.10;99.90;;;;;;5007072;28;20046;-84
2022/07/16 02:43:00;;;;;;;8.45;2.05;;;15.00;99.90;;;;;;5003914;28;20050;-84
2022/07/16 02:45:26;;;;;;;3.72;1.83;;;15.00;99.90;;;;;;4985178;28;20043;-84
2022/07/16 02:47:52;;;;;;;;;;;14.90;99.90;;;;;;5002588;28;20138;-84
2022/07/16 02:50:18;;;;;;;4.60;1.77;;;14.90;99.90;;;;;;5004193;28;20012;-84
2022/07/16 02:52:44;;;;;;;6.60;1.90;;;14.90;99.90;;;;;;4987997;28;20459;-83
2022/07/16 02:55:10;;;;;;;4.75;1.88;;;14.90;99.90;;;;;;4985905;28;20073;-83
2022/07/16 02:57:36;;;;;;;5.43;2.20;;;14.90;99.90;;;;;;5004427;28;20034;-82
2022/07/16 03:00:04;;;;;;;;;;;14.80;99.90;;;;;;4985038;28;20617;-83
2022/07/16 03:02:29;;;;;;;4.32;2.00;;;14.80;99.90;;;;;;5001663;28;19917;-84
2022/07/16 03:04:55;;;;;;;6.18;2.22;;;14.80;99.90;;;;;;4996268;28;20049;-83
2022/07/16 03:07:21;;;;;;;5.05;1.60;;;14.70;99.90;;;;;;4996484;28;20077;-83
2022/07/16 03:09:47;;;;;;;7.88;1.90;;;14.70;99.90;;;;;;5000343;28;20042;-83
2022/07/16 03:12:12;;;;;;;4.80;1.83;;;14.60;99.90;;;;;;4995508;28;20041;-84
2022/07/16 03:14:38;;;;;;;9.38;2.40;;;14.60;99.90;;;;;;4995928;28;20078;-84
2022/07/16 03:17:04;;;;;;;3.70;1.80;;;14.50;99.90;;;;;;4989542;28;20038;-83
2022/07/16 03:19:29;;;;;;;4.57;2.08;;;14.50;99.90;;;;;;5003440;28;20543;-83
2022/07/16 03:21:55;;;;;;;5.85;1.85;;;14.40;99.90;;;;;;4964617;28;20451;-83
2022/07/16 03:24:20;;;;;;;4.80;2.07;;;14.40;99.90;;;;;;5001515;28;20042;-84
2022/07/16 03:26:46;;;;;;;5.03;1.60;;;14.30;99.90;;;;;;5007067;28;20299;-82
2022/07/16 03:29:12;;;;;;;5.57;1.90;;;14.30;99.90;;;;;;5010312;28;20280;-84
2022/07/16 03:31:37;;;;;;;3.83;1.98;;;14.30;99.90;;;;;;4983323;28;20057;-84
2022/07/16 03:34:03;;;;;;;7.90;2.17;;;14.20;99.90;;;;;;5005797;28;20034;-84
2022/07/16 03:36:29;;;;;;;3.80;1.77;;;14.20;99.90;;;;;;5003614;28;20041;-83
2022/07/16 03:38:58;;;;;;;5.78;1.98;;;14.10;99.90;;;;;;4986739;28;20048;-85
2022/07/16 03:41:24;;;;;;;4.50;1.67;;;14.20;99.90;;;;;;4998462;28;20510;-84
2022/07/16 03:43:49;;;;;;;9.05;2.13;;;14.10;99.90;;;;;;4984314;28;20041;-84
2022/07/16 03:46:16;;;;;;;5.07;1.87;;;14.10;99.90;;;;;;4982033;28;20046;-83
2022/07/16 03:48:42;;;;;;;9.15;1.90;;;14.00;99.90;;;;;;5000394;28;20367;-84
2022/07/16 03:51:08;;;;;;;3.97;2.00;;;14.00;99.90;;;;;;4997523;28;20038;-83
2022/07/16 03:53:34;;;;;;;;;;;14.00;99.90;;;;;;4996155;28;20438;-84
2022/07/16 03:56:00;;;;;;;5.60;1.83;;;14.00;99.90;;;;;;4995398;28;19918;-84
2022/07/16 03:58:28;;;;;;;7.95;2.22;;;13.90;99.90;;;;;;5000870;28;20037;-84
2022/07/16 04:00:54;;;;;;;5.30;1.90;;;13.90;99.90;;;;;;5001504;28;20042;-84
2022/07/16 04:03:21;;;;;;;4.35;1.80;;;13.90;99.90;;;;;;4998224;28;20042;-83
2022/07/16 04:05:47;;;;;;;5.20;2.00;;;13.80;99.90;;;;;;4988242;28;20042;-83
2022/07/16 04:08:12;;;;;;;6.18;2.00;;;13.80;99.90;;;;;;4974606;28;20045;-84
2022/07/16 04:10:38;;;;;;;5.97;2.27;;;13.80;99.90;;;;;;5003275;28;20041;-83
2022/07/16 04:13:04;;;;;;;7.18;2.47;;;13.80;99.90;;;;;;4999190;28;20344;-83
2022/07/16 04:15:30;;;;;;;6.47;2.30;;;13.80;99.90;;;;;;4996760;28;20531;-83
2022/07/16 04:17:56;;;;;;;7.93;2.65;;;13.80;99.90;;;;;;4978940;28;20040;-84
2022/07/16 04:20:22;;;;;;;5.38;1.95;;;13.80;99.90;;;;;;5003390;28;20042;-84
2022/07/16 04:22:47;;;;;;;6.57;2.22;;;13.80;99.90;;;;;;4983109;28;20042;-83
2022/07/16 04:25:13;;;;;;;3.85;1.95;;;13.80;99.90;;;;;;4986671;28;20038;-83
2022/07/16 04:27:40;;;;;;;9.65;2.50;;;13.90;99.90;;;;;;5000484;28;20078;-83
2022/07/16 04:30:08;;;;;;;5.95;2.28;;;13.90;99.90;;;;;;4981224;28;20049;-83
2022/07/16 04:32:34;;;;;;;6.72;1.90;;;13.90;99.90;;;;;;5005357;28;20030;-84
2022/07/16 04:35:00;;;;;;;7.63;1.90;;;13.90;99.90;;;;;;5007538;28;20069;-83
2022/07/16 04:37:26;;;;;;;7.07;2.38;;;13.90;99.90;;;;;;4978978;28;20068;-83
2022/07/16 04:39:52;;;;;;;5.57;2.35;;;13.90;99.90;;;;;;5001830;28;20041;-83
2022/07/16 04:42:18;;;;;;;8.23;2.28;;;13.90;99.90;;;;;;5005546;28;20042;-83
2022/07/16 04:44:44;;;;;;;6.38;1.80;;;13.80;99.90;;;;;;4971312;28;20521;-83
2022/07/16 04:47:10;;;;;;;5.45;1.75;;;14.00;99.90;;;;;;4984531;28;20042;-83
2022/07/16 04:49:36;;;;;;;5.20;2.00;;;14.00;99.90;;;;;;5003971;28;20426;-83
2022/07/16 04:52:02;;;;;;;6.82;2.00;;;14.00;99.90;;;;;;4997672;28;20042;-83
2022/07/16 04:54:27;;;;;;;7.55;2.45;;;14.10;99.90;;;;;;5002737;28;20038;-84
2022/07/16 04:56:53;;;;;;;7.53;2.05;;;14.20;99.90;;;;;;5010038;28;20066;-84
2022/07/16 04:59:19;;;;;;;6.45;2.25;;;14.20;99.90;;;;;;5004590;28;20406;-83
2022/07/16 05:01:45;;;;;;;5.55;1.60;;;14.20;99.90;;;;;;5003749;28;20037;-84
2022/07/16 05:04:11;;;;;;;5.28;1.63;;;14.30;99.90;;;;;;4981879;28;20446;-83
2022/07/16 05:06:36;;;;;;;6.68;1.25;;;14.30;99.90;;;;;;5003564;28;20121;-84
2022/07/16 05:09:03;;;;;;;4.55;1.40;;;14.40;99.90;;;;;;5007521;28;20033;-84
2022/07/16 05:11:29;;;;;;;5.72;1.45;;;14.40;99.90;;;;;;4982692;28;20053;-83
2022/07/16 05:13:55;;;;;;;;;;;14.40;99.90;;;;;;5006154;28;20088;-83
2022/07/16 05:16:22;;;;;;;4.45;1.00;;;14.50;99.90;;;;;;5008499;28;19917;-83
2022/07/16 05:18:47;;;;;;;4.97;1.40;;;14.60;99.90;;;;;;5004052;28;20069;-84
2022/07/16 05:21:13;;;;;;;6.80;1.45;;;14.60;99.90;;;;;;5003071;28;20065;-83
2022/07/16 05:23:39;;;;;;;7.40;1.25;;;14.70;99.90;;;;;;4996192;28;20509;-84
2022/07/16 05:26:05;;;;;;;6.28;1.33;;;14.80;99.90;;;;;;4980320;28;20098;-82
2022/07/16 05:28:30;;;;;;;5.82;1.00;;;14.80;99.90;;;;;;5006851;28;20058;-83
2022/07/16 05:30:56;;;;;;;8.88;1.45;;;14.90;99.90;;;;;;4992555;28;20046;-84
2022/07/16 05:33:22;;;;;;;5.13;1.33;;;15.00;99.90;;;;;;5008050;28;20405;-84
2022/07/16 05:35:48;;;;;;;5.47;1.23;;;15.00;99.90;;;;;;5007935;28;20044;-83
2022/07/16 05:38:13;;;;;;;3.45;1.00;;;15.20;99.90;;;;;;4986676;28;20041;-83
2022/07/16 05:40:39;;;;;;;3.35;0.80;;;15.30;99.90;;;;;;4999056;28;20103;-83
2022/07/16 05:43:06;;;;;;;5.50;1.23;;;15.40;99.90;;;;;;4980937;28;20050;-84
2022/07/16 05:45:32;;;;;;;3.88;0.90;;;15.50;99.90;;;;;;5000378;28;20084;-84
2022/07/16 05:47:58;;;;;;;3.45;0.82;;;15.60;99.90;;;;;;5011509;28;20077;-84
2022/07/16 05:50:24;;;;;;;4.80;0.90;;;15.70;99.90;;;;;;5010287;28;20046;-84
2022/07/16 05:52:50;;;;;;;5.28;0.77;;;15.80;99.90;;;;;;4998652;28;20379;-82
2022/07/16 05:55:15;;;;;;;4.55;0.90;;;15.80;99.90;;;;;;4988807;28;20112;-83
2022/07/16 05:57:41;;;;;;;6.50;1.05;;;15.90;99.90;;;;;;4990475;28;20784;-84
2022/07/16 06:00:10;;;;;;;4.75;1.00;;;16.00;99.90;;;;;;4999579;28;20108;-84
2022/07/16 06:02:37;;;;;;;3.85;0.70;;;16.00;99.90;;;;;;4997029;28;20076;-84
2022/07/16 06:05:03;;;;;;;6.38;1.20;;;16.20;99.90;;;;;;5009745;28;20465;-84
2022/07/16 06:07:28;;;;;;;2.92;0.77;;;16.60;99.90;;;;;;4970965;28;20069;-84
2022/07/16 06:09:54;;;;;;;3.47;0.90;;;17.20;99.90;;;;;;5005676;28;20073;-83
2022/07/16 06:12:20;;;;;;;3.90;1.02;;;17.50;99.90;;;;;;4968508;28;20038;-83
2022/07/16 06:14:46;;;;;;;3.88;0.90;;;17.90;99.90;;;;;;5001016;28;20041;-83
2022/07/16 06:17:13;;;;;;;7.90;1.05;;;18.10;99.90;;;;;;5005129;28;20415;-83
2022/07/16 06:19:42;;;;;;;4.30;0.75;;;18.30;99.90;;;;;;5006018;28;20061;-84
2022/07/16 06:22:09;;;;;;;5.47;0.80;;;18.40;99.90;;;;;;4999811;28;20514;-82
2022/07/16 06:24:35;;;;;;;5.10;0.88;;;18.40;99.90;;;;;;5004732;28;20045;-83
2022/07/16 06:27:01;;;;;;;6.28;0.70;;;18.40;99.90;;;;;;5004767;28;20050;-83
2022/07/16 06:29:27;;;;;;;4.82;0.82;;;18.60;99.90;;;;;;4984523;28;20088;-84
2022/07/16 06:31:52;;;;;;;4.57;0.70;;;18.50;99.90;;;;;;4999265;28;20118;-83
2022/07/16 06:34:18;;;;;;;3.95;0.57;;;18.60;99.90;;;;;;4985421;28;20038;-82
2022/07/16 06:36:43;;;;;;;5.10;0.80;;;18.70;99.90;;;;;;5006338;28;20073;-83
2022/07/16 06:39:09;;;;;;;4.57;0.50;;;18.80;99.90;;;;;;5001038;28;20049;-83
2022/07/16 06:41:37;;;;;;;5.22;0.70;;;18.90;99.90;;;;;;4999101;28;20096;-82
2022/07/16 06:44:09;;;;;;;5.25;0.50;;;19.10;99.90;;;;;;4998993;28;20446;-83
2022/07/16 06:46:35;;;;;;;3.17;0.65;;;19.10;99.90;;;;;;5006659;28;20100;-84
2022/07/16 06:49:01;;;;;;;3.35;0.52;;;19.30;99.90;;;;;;4997102;28;20045;-83
2022/07/16 06:51:27;;;;;;;2.88;0.60;;;19.40;99.90;;;;;;4994847;28;20483;-83
2022/07/16 06:53:53;;;;;;;5.78;0.50;;;19.80;99.90;;;;;;4995861;28;20117;-84
2022/07/16 06:56:19;;;;;;;1.48;0.38;;;19.80;99.90;;;;;;5002654;28;20069;-84
2022/07/16 06:58:45;;;;;;;2.90;0.45;;;20.10;99.90;;;;;;4984298;28;20138;-85
2022/07/16 07:01:10;;;;;;;1.98;0.50;;;20.00;99.90;;;;;;4985222;28;20725;-84
2022/07/16 07:03:40;;;;;;;3.22;0.40;;;19.90;99.90;;;;;;5011291;28;20046;-85
2022/07/16 07:06:07;;;;;;;2.13;0.40;;;19.60;99.90;;;;;;4988731;28;20038;-83
2022/07/16 07:08:33;;;;;;;4.25;0.50;;;19.60;99.90;;;;;;4982320;28;20088;-83
2022/07/16 07:11:01;;;;;;;;;;;19.60;99.90;;;;;;5006243;28;20069;-84
2022/07/16 07:13:30;;;;;;;4.00;0.40;;;19.30;99.80;;;;;;5006218;28;19918;-85
2022/07/16 07:15:57;;;;;;;1.52;0.30;;;19.20;99.90;;;;;;4998013;28;20033;-84
2022/07/16 07:18:23;;;;;;;2.85;0.50;;;19.40;99.90;;;;;;5001621;28;20041;-85
2022/07/16 07:20:49;;;;;;;;;;;19.50;99.00;;;;;;5004475;28;20050;-84
2022/07/16 07:23:15;;;;;;;2.40;0.50;;;19.70;99.40;;;;;;4989629;28;19924;-84
2022/07/16 07:25:40;;;;;;;3.70;0.43;;;20.10;99.90;;;;;;4968661;28;20069;-83
2022/07/16 07:28:06;;;;;;;2.55;0.38;;;20.40;99.60;;;;;;4985321;28;20046;-82
2022/07/16 07:30:32;;;;;;;4.78;0.50;;;20.30;98.70;;;;;;4982373;28;20414;-84
2022/07/16 07:33:00;;;;;;;3.17;0.40;;;20.40;99.20;;;;;;4989090;28;20164;-84
2022/07/16 07:35:26;;;;;;;1.83;0.50;;;20.50;98.90;;;;;;5025360;28;20091;-84
2022/07/16 07:37:52;;;;;;;4.60;0.50;;;20.50;99.10;;;;;;4990276;28;20034;-84
2022/07/16 07:40:18;;;;;;;2.95;0.40;;;20.00;99.00;;;;;;4982198;28;20392;-84
2022/07/16 07:42:44;;;;;;;2.60;0.40;;;19.50;99.10;;;;;;4989821;28;20061;-83
2022/07/16 07:45:10;;;;;;;3.33;0.43;;;19.00;99.80;;;;;;4984081;28;20034;-83
2022/07/16 07:47:37;;;;;;;3.10;0.40;;;18.80;99.90;;;;;;4998637;28;20068;-85
2022/07/16 07:50:04;;;;;;;2.95;0.45;;;18.90;99.90;;;;;;4980033;28;20146;-84
2022/07/16 07:52:31;;;;;;;2.45;0.43;;;19.10;99.90;;;;;;5001026;28;20447;-84
2022/07/16 07:54:56;;;;;;;4.60;0.63;;;19.30;99.90;;;;;;5000636;28;20061;-83
2022/07/16 07:57:22;;;;;;;2.83;0.43;;;20.00;99.90;;;;;;4976186;28;20050;-83
2022/07/16 07:59:48;;;;;;;3.45;0.52;;;20.40;99.90;;;;;;4987589;28;20040;-84
2022/07/16 08:02:13;;;;;;;3.70;0.45;;;20.80;99.40;;;;;;5001442;28;20049;-84
2022/07/16 08:04:39;;;;;;;4.00;0.35;;;21.10;99.90;;;;;;4988916;28;20129;-85
2022/07/16 08:07:05;;;;;;;3.72;0.40;;;21.10;99.90;;;;;;4979960;28;20041;-84
2022/07/16 08:09:31;;;;;;;2.72;0.32;;;20.90;99.60;;;;;;4998677;28;20042;-83
2022/07/16 08:11:56;;;;;;;;;;;20.60;98.90;;;;;;5005897;28;20050;-82
2022/07/16 08:14:22;;;;;;;2.70;0.40;;;20.20;99.60;;;;;;4997776;28;19972;-81
2022/07/16 08:16:48;;;;;;;3.65;0.57;;;20.00;99.70;;;;;;5000104;28;20034;-81
2022/07/16 08:19:13;;;;;;;4.20;0.60;;;19.90;99.90;;;;;;5005563;28;20053;-80
2022/07/16 08:21:39;;;;;;;2.08;0.38;;;19.90;99.90;;;;;;5003405;28;20056;-82
2022/07/16 08:26:51;;;;;;;5.35;0.68;;;20.00;99.90;;;;;;4997563;28;20042;-80
2022/07/16 08:29:16;;;;;;;2.60;0.60;;;20.30;99.90;;;;;;5001154;28;20046;-86
2022/07/16 08:31:42;;;;;;;4.32;0.50;;;20.60;99.90;;;;;;4969885;28;21109;-81
2022/07/16 08:34:08;;;;;;;4.60;0.60;;;20.60;99.90;;;;;;4988205;28;20076;-81
2022/07/16 08:36:36;;;;;;;4.88;0.68;;;20.50;99.90;;;;;;4970456;28;20045;-81
2022/07/16 08:39:02;;;;;;;5.28;0.57;;;20.40;99.90;;;;;;5004576;28;20046;-79
2022/07/16 08:41:28;;;;;;;4.10;0.70;;;20.00;99.90;;;;;;4988646;28;20149;-81
2022/07/16 08:43:55;;;;;;;6.45;1.25;;;19.80;99.90;;;;;;5001145;28;20046;-81
2022/07/16 08:46:21;;;;;;;5.82;0.75;;;19.50;99.90;;;;;;4999819;28;20494;-80
2022/07/16 08:48:52;;;;;;;5.78;0.70;;;19.30;99.90;;;;;;5019273;28;20092;-80
2022/07/16 08:51:32;;;;;;;5.80;0.82;;;19.20;99.90;;;;;;4993390;28;20104;-81
2022/07/16 08:54:17;;;;;;;3.13;0.50;;;19.70;99.90;;;;;;5015831;28;20042;-80
2022/07/16 08:56:44;;;;;;;3.00;0.55;;;19.90;99.90;;;;;;4999705;28;20044;-81
2022/07/16 08:59:10;;;;;;;4.50;0.55;;;19.90;99.90;;;;;;4983048;28;20038;-82
2022/07/16 09:01:36;;;;;;;4.00;0.60;;;20.00;99.90;;;;;;4991799;28;20038;-81
2022/07/16 09:04:03;;;;;;;3.45;0.57;;;20.00;99.90;;;;;;4978574;28;20038;-82
2022/07/16 09:06:29;;;;;;;4.15;0.65;;;20.10;99.70;;;;;;5001961;28;20050;-82
2022/07/16 09:08:55;;;;;;;;;;;20.00;98.50;;;;;;4969870;28;20073;-82
2022/07/16 09:11:31;;;;;;;4.85;0.52;;;20.00;98.60;;;;;;5002952;28;19999;-81
2022/07/16 09:14:04;;;;;;;4.07;0.40;;;20.40;98.50;;;;;;4994949;28;20096;-81
2022/07/16 09:16:38;;;;;;;2.53;0.60;;;20.90;98.90;;;;;;4998540;28;20120;-81
2022/07/16 09:19:12;;;;;;;3.00;0.45;;;21.50;98.60;;;;;;4982208;28;20410;-82
2022/07/16 09:22:03;;;;;;;4.38;0.57;;;21.80;97.20;;;;;;4985014;28;20050;-83
2022/07/16 09:24:45;;;;;;;5.28;0.60;;;22.00;98.20;;;;;;5007808;28;20049;-83
2022/07/16 09:27:12;;;;;;;2.97;0.57;;;22.10;97.10;;;;;;4997975;28;20427;-82
2022/07/16 09:29:50;;;;;;;6.38;0.60;;;22.30;97.40;;;;;;5020177;28;20046;-81
2022/07/16 09:32:36;;;;;;;3.40;0.40;;;22.10;96.70;;;;;;5000259;28;20053;-82
2022/07/16 09:35:11;;;;;;;1.80;0.40;;;21.90;96.60;;;;;;5003865;28;20038;-81
2022/07/16 09:37:56;;;;;;;2.38;0.40;;;22.20;95.90;;;;;;5007540;28;20038;-83
2022/07/16 09:40:35;;;;;;;3.70;0.60;;;22.80;95.90;;;;;;5003737;28;20128;-83
2022/07/16 09:43:22;;;;;;;3.42;0.50;;;23.10;95.20;;;;;;4990590;28;20029;-83
2022/07/16 09:46:02;;;;;;;3.95;0.40;;;22.90;94.80;;;;;;5028443;23;20050;-82
2022/07/16 09:48:35;;;;;;;3.30;0.68;;;23.10;94.10;;;;;;4999828;28;20112;-83
2022/07/16 09:51:15;;;;;;;3.33;0.85;;;23.40;94.50;;;;;;5013964;28;20043;-83
2022/07/16 09:53:43;;;;;;;2.92;0.77;;;23.70;94.50;;;;;;5016300;28;20119;-83
2022/07/16 09:56:12;;;;;;;4.82;0.80;;;23.40;94.20;;;;;;4999242;28;20120;-82
2022/07/16 09:58:38;;;;;;;3.58;0.55;;;23.60;94.90;;;;;;4998884;28;20082;-83
2022/07/16 10:01:04;;;;;;;;;;;23.50;94.30;;;;;;4999762;28;20398;-82
2022/07/16 10:03:30;;;;;;;4.10;0.60;;;23.50;93.40;;;;;;5015201;28;19963;-82
2022/07/16 10:05:56;;;;;;;2.45;0.40;;;23.80;93.90;;;;;;5000935;28;20520;-82
2022/07/16 10:08:23;;;;;;;1.55;0.30;;;24.10;93.90;;;;;;5031660;28;20060;-82
2022/07/16 10:10:50;;;;;;;3.97;0.50;;;24.10;93.80;;;;;;4997057;28;20073;-83
2022/07/16 10:13:18;;;;;;;1.88;0.50;;;23.80;92.20;;;;;;5014198;28;20095;-81
2022/07/16 10:15:46;;;;;;;1.77;0.40;;;24.00;93.10;;;;;;4995829;28;20029;-82
2022/07/16 10:18:45;;;;;;;3.70;0.40;;;24.30;93.60;;;;;;4998672;28;20048;-84
2022/07/16 10:21:19;;;;;;;1.92;0.40;;;24.50;92.20;;;;;;4997716;28;20037;-83
2022/07/16 10:24:08;;;;;;;3.45;0.40;;;24.10;93.40;;;;;;5013066;28;20041;-82
2022/07/16 10:26:35;;;;;;;4.40;0.52;;;24.20;93.60;;;;;;5005824;28;20084;-83
2022/07/16 10:29:02;;;;;;;2.90;0.40;;;24.50;93.60;;;;;;5013395;28;20045;-83
2022/07/16 10:31:31;;;;;;;2.33;0.32;;;24.50;93.30;;;;;;5013476;28;20033;-81
2022/07/16 10:34:15;;;;;;;2.30;0.63;;;24.20;93.30;;;;;;4997373;28;20037;-82
2022/07/16 10:36:55;;;;;;;2.30;0.47;;;23.90;93.30;;;;;;5011699;28;20037;-81
2022/07/16 10:39:23;;;;;;;3.85;0.82;;;24.20;93.30;;;;;;4997361;28;20041;-83
2022/07/16 10:42:00;;;;;;;2.05;0.60;;;24.40;93.40;;;;;;5013814;28;20037;-82
2022/07/16 10:44:47;;;;;;;2.60;0.40;;;24.80;93.30;;;;;;4997892;28;20528;-82
2022/07/16 10:47:13;;;;;;;4.00;0.73;;;25.10;93.20;;;;;;4995768;28;20048;-82
2022/07/16 10:49:40;;;;;;;2.05;0.38;;;25.30;93.20;;;;;;4996204;28;20048;-81
2022/07/16 10:52:14;;;;;;;4.07;0.73;;;24.50;92.90;;;;;;5013323;28;20087;-84
2022/07/16 10:54:49;;;;;;;2.72;0.40;;;24.10;93.70;;;;;;5014425;28;20534;-81
2022/07/16 10:57:16;;;;;;;4.00;0.65;;;24.30;93.80;;;;;;5014255;28;20125;-82
2022/07/16 10:59:43;;;;;;;5.28;0.50;;;24.70;93.70;;;;;;4997411;28;20079;-81
2022/07/16 11:02:11;;;;;;;3.55;0.40;;;24.70;93.60;;;;;;4981435;28;20095;-82
2022/07/16 11:04:41;;;;;;;5.03;0.50;;;25.00;94.10;;;;;;4983391;28;20045;-81
2022/07/16 11:07:12;;;;;;;2.00;0.35;;;24.30;93.40;;;;;;5004021;28;20046;-82
2022/07/16 11:09:42;;;;;;;5.82;0.77;;;24.20;94.00;;;;;;4996899;28;20038;-82
2022/07/16 11:12:09;;;;;;;3.88;0.52;;;24.20;93.90;;;;;;5011385;28;20084;-81
2022/07/16 11:14:35;;;;;;;4.47;0.40;;;24.20;94.60;;;;;;5013579;28;20037;-81
2022/07/16 11:17:02;;;;;;;3.42;0.70;;;24.10;94.40;;;;;;4997197;28;20087;-81
2022/07/16 11:19:28;;;;;;;3.88;0.43;;;23.80;93.60;;;;;;4996741;28;20045;-79
2022/07/16 11:21:59;;;;;;;3.05;0.60;;;24.10;94.40;;;;;;5012260;28;20393;-79
2022/07/16 11:24:26;;;;;;;4.70;0.73;;;24.60;94.70;;;;;;5013407;28;21441;-81
2022/07/16 11:26:53;;;;;;;4.38;0.50;;;24.30;93.60;;;;;;4997614;28;20054;-81
2022/07/16 11:29:21;;;;;;;2.95;0.70;;;24.40;94.00;;;;;;4997552;28;20041;-81
2022/07/16 11:31:48;;;;;;;4.50;0.57;;;24.70;93.80;;;;;;4996699;28;20037;-82
2022/07/16 11:34:14;;;;;;;5.10;0.50;;;24.80;93.80;;;;;;5014012;28;20555;-82
2022/07/16 11:36:45;;;;;;;4.03;0.80;;;25.40;93.80;;;;;;5013441;28;20041;-82
2022/07/16 11:39:13;;;;;;;4.85;0.60;;;25.30;92.70;;;;;;5013565;28;20048;-82
2022/07/16 11:41:43;;;;;;;3.10;0.50;;;25.50;92.90;;;;;;5013246;28;20044;-83
2022/07/16 11:44:13;;;;;;;2.38;0.40;;;25.60;93.50;;;;;;5013601;28;20053;-82
2022/07/16 11:46:47;;;;;;;7.85;0.73;;;25.50;92.80;;;;;;5013325;28;20045;-86
2022/07/16 11:49:26;;;;;;;20.42;4.53;;;25.70;92.60;;;;;;5013016;28;20095;-77
2022/07/16 11:51:53;;;;;;;5.20;0.60;;;25.60;92.80;;;;;;5012910;28;20040;-79
2022/07/16 11:54:20;;;;;;;18.83;2.38;;;24.70;92.50;;;;;;4998286;28;20041;-76
2022/07/16 11:56:46;;;;;;;9.25;0.82;;;24.50;92.90;;;;;;5012766;28;20038;-80
2022/07/16 11:59:25;;;;;;;3.75;0.47;;;24.70;93.40;;;;;;4997091;28;20103;-81
2022/07/16 12:02:13;;;;;;;4.80;0.50;;;25.00;93.00;;;;;;5012522;28;20045;-81
2022/07/16 12:04:48;;;;;;;3.85;0.50;;;25.40;93.80;;;;;;4997252;28;20072;-81
2022/07/16 12:07:25;;;;;;;5.47;0.60;;;25.50;93.00;;;;;;5013779;28;20049;-81
2022/07/16 12:09:54;;;;;;;2.83;0.75;;;25.30;93.20;;;;;;5010710;28;20041;-81
2022/07/16 12:12:22;;;;;;;2.72;0.50;;;25.30;92.90;;;;;;4996552;28;20458;-82
2022/07/16 12:14:53;;;;;;;3.30;0.57;;;25.60;94.00;;;;;;4979164;28;20096;-81
2022/07/16 12:17:28;;;;;;;5.15;0.73;;;25.90;94.10;;;;;;4995412;28;20075;-81
2022/07/16 12:20:09;;;;;;;5.25;0.50;;;25.80;92.40;;;;;;5009657;28;20033;-82
2022/07/16 12:23:00;;;;;;;5.43;0.47;;;25.70;92.50;;;;;;5010511;28;20056;-81
2022/07/16 12:25:30;;;;;;;2.63;0.45;;;25.40;92.90;;;;;;5029446;28;20501;-81
2022/07/16 12:28:04;;;;;;;4.80;0.70;;;24.90;92.60;;;;;;5012694;28;20049;-81
2022/07/16 12:30:35;;;;;;;3.90;0.55;;;24.70;93.10;;;;;;5012965;28;20048;-81
2022/07/16 12:33:02;;;;;;;4.97;0.50;;;24.70;93.20;;;;;;5012762;28;20048;-80
2022/07/16 12:35:47;;;;;;;7.32;0.75;;;24.70;93.00;;;;;;4996718;28;20068;-81
2022/07/16 12:38:40;;;;;;;5.65;0.65;;;24.50;93.50;;;;;;5013682;28;20506;-81
2022/07/16 12:41:15;;;;;;;3.72;0.70;;;24.30;93.20;;;;;;5012781;28;20056;-81
2022/07/16 12:43:42;;;;;;;3.05;0.70;;;24.90;93.80;;;;;;5012375;28;20041;-81
2022/07/16 12:46:10;;;;;;;4.65;0.45;;;25.20;92.90;;;;;;4995992;28;20049;-81
2022/07/16 12:48:45;;;;;;;2.80;0.75;;;25.30;92.70;;;;;;4980665;28;20951;-80
2022/07/16 12:51:14;;;;;;;5.28;0.60;;;25.20;92.40;;;;;;5010989;28;20041;-81
2022/07/16 12:53:40;;;;;;;4.00;0.60;;;25.20;92.70;;;;;;5000218;28;20042;-81
2022/07/16 12:58:51;;;;;;;4.68;0.90;;;25.30;93.30;;;;;;5016286;28;20044;-80
2022/07/16 13:01:19;;;;;;;3.92;0.65;;;25.40;91.80;;;;;;4984099;28;20048;-81
2022/07/16 13:03:46;;;;;;;3.28;0.70;;;25.40;92.10;;;;;;5016484;28;20517;-81